createdAt,value
2023-10-08T00:00:42.959Z,102099.41
2023-10-08T00:03:10.226Z,102108.44
2023-10-08T00:05:37.129Z,102121.03
2023-10-08T00:08:04.243Z,102130.66
2023-10-08T00:10:35.415Z,102110.09
2023-10-08T00:13:03.548Z,102120.59
2023-10-08T00:15:32.400Z,102117.09
2023-10-08T00:17:59.538Z,102118.63
2023-10-08T00:20:26.236Z,102117.06
2023-10-08T00:22:52.891Z,102127.25
2023-10-08T00:25:19.722Z,102137.03
2023-10-08T00:27:46.324Z,102140.59
2023-10-08T00:30:14.762Z,102140.31
2023-10-08T00:32:41.445Z,102136.72
2023-10-08T00:35:10.105Z,102138.72
2023-10-08T00:37:36.682Z,102141.25
2023-10-08T00:40:03.754Z,102129.50
2023-10-08T00:42:30.348Z,102140.53
2023-10-08T00:44:56.953Z,102136.16
2023-10-08T00:47:24.934Z,102138.69
2023-10-08T00:49:52.385Z,102148.88
2023-10-08T00:52:19.011Z,102154.13
2023-10-08T00:54:45.834Z,102154.38
2023-10-08T00:57:12.527Z,102152.13
2023-10-08T00:59:39.254Z,102150.88
2023-10-08T01:02:05.970Z,102150.44
2023-10-08T01:04:34.359Z,102135.72
2023-10-08T01:07:03.212Z,102139.75
2023-10-08T01:09:29.824Z,102148.78
2023-10-08T01:12:09.868Z,102146.63
2023-10-08T01:14:36.507Z,102136.16
2023-10-08T01:17:03.171Z,102130.66
2023-10-08T01:19:29.758Z,102137.44
2023-10-08T01:21:57.692Z,102141.81
2023-10-08T01:24:25.741Z,102142.28
2023-10-08T01:26:52.434Z,102155.56
2023-10-08T01:29:19.149Z,102143.97
2023-10-08T01:31:46.191Z,102138.44
2023-10-08T01:34:12.831Z,102142.28
2023-10-08T01:36:39.460Z,102144.97
2023-10-08T01:39:06.424Z,102137.28
2023-10-08T01:41:34.635Z,102141.53
2023-10-08T01:44:01.245Z,102134.31
2023-10-08T01:46:27.917Z,102147.03
2023-10-08T01:48:54.552Z,102151.03
2023-10-08T01:51:21.225Z,102149.31
2023-10-08T01:53:47.867Z,102159.91
2023-10-08T01:56:14.546Z,102162.88
2023-10-08T01:58:43.155Z,102159.75
2023-10-08T02:01:09.762Z,102161.78
2023-10-08T02:03:36.509Z,102159.81
2023-10-08T02:06:03.351Z,102153.59
2023-10-08T02:08:30.079Z,102148.22
2023-10-08T02:10:56.687Z,102154.72
2023-10-08T02:13:23.254Z,102161.09
2023-10-08T02:15:52.667Z,102177.66
2023-10-08T02:18:19.266Z,102177.69
2023-10-08T02:20:46.234Z,102182.50
2023-10-08T02:23:13.578Z,102179.06
2023-10-08T02:25:40.618Z,102185.91
2023-10-08T02:28:07.861Z,102190.13
2023-10-08T02:30:34.436Z,102186.19
2023-10-08T02:33:02.475Z,102191.56
2023-10-08T02:35:29.331Z,102190.56
2023-10-08T02:37:55.930Z,102198.06
2023-10-08T02:40:22.664Z,102214.59
2023-10-08T02:42:49.524Z,102195.06
2023-10-08T02:45:16.125Z,102200.03
2023-10-08T02:47:43.663Z,102203.00
2023-10-08T02:50:12.274Z,102197.31
2023-10-08T02:52:38.918Z,102215.03
2023-10-08T02:55:06.533Z,102215.69
2023-10-08T02:57:33.121Z,102220.66
2023-10-08T02:59:59.716Z,102224.06
2023-10-08T03:02:26.508Z,102219.50
2023-10-08T03:04:53.251Z,102218.63
2023-10-08T03:07:21.578Z,102229.09
2023-10-08T03:09:51.071Z,102241.38
2023-10-08T03:12:18.301Z,102242.38
2023-10-08T03:14:45.135Z,102238.41
2023-10-08T03:17:11.832Z,102244.88
2023-10-08T03:19:38.437Z,102265.22
2023-10-08T03:22:05.055Z,102269.75
2023-10-08T03:24:33.050Z,102274.91
2023-10-08T03:27:00.613Z,102264.19
2023-10-08T03:29:27.238Z,102265.75
2023-10-08T03:31:53.910Z,102265.44
2023-10-08T03:34:21.437Z,102270.06
2023-10-08T03:36:49.083Z,102266.00
2023-10-08T03:39:17.167Z,102257.53
2023-10-08T03:41:45.443Z,102264.75
2023-10-08T03:44:12.034Z,102269.84
2023-10-08T03:46:39.770Z,102272.22
2023-10-08T03:49:06.503Z,102281.56
2023-10-08T03:51:33.127Z,102274.06
2023-10-08T03:53:59.778Z,102276.03
2023-10-08T03:56:27.031Z,102282.13
2023-10-08T03:58:55.002Z,102285.34
2023-10-08T04:01:22.308Z,102285.34
2023-10-08T04:03:48.888Z,102288.19
2023-10-08T04:06:15.489Z,102294.72
2023-10-08T04:08:42.147Z,102291.78
2023-10-08T04:11:08.809Z,102306.78
2023-10-08T04:13:35.594Z,102302.53
2023-10-08T04:16:03.993Z,102306.16
2023-10-08T04:18:30.618Z,102313.91
2023-10-08T04:20:57.337Z,102312.06
2023-10-08T04:23:23.982Z,102309.41
2023-10-08T04:25:50.567Z,102323.69
2023-10-08T04:28:17.112Z,102325.22
2023-10-08T04:30:43.763Z,102327.22
2023-10-08T04:33:11.899Z,102320.59
2023-10-08T04:35:40.167Z,102335.44
2023-10-08T04:38:06.855Z,102351.56
2023-10-08T04:40:33.408Z,102358.34
2023-10-08T04:43:00.055Z,102360.78
2023-10-08T04:45:26.676Z,102363.56
2023-10-08T04:47:53.309Z,102371.56
2023-10-08T04:50:21.333Z,102381.09
2023-10-08T04:52:48.026Z,102364.81
2023-10-08T04:55:15.379Z,102357.75
2023-10-08T04:57:41.961Z,102339.81
2023-10-08T05:00:09.301Z,102354.53
2023-10-08T05:02:35.912Z,102351.16
2023-10-08T05:05:02.600Z,102349.16
2023-10-08T05:07:30.560Z,102358.84
2023-10-08T05:09:57.142Z,102350.03
2023-10-08T05:12:23.708Z,102347.72
2023-10-08T05:14:50.283Z,102344.66
2023-10-08T05:17:16.930Z,102344.38
2023-10-08T05:19:43.502Z,102339.72
2023-10-08T05:22:10.176Z,102332.59
2023-10-08T05:24:38.079Z,102333.34
2023-10-08T05:27:05.973Z,102345.44
2023-10-08T05:29:32.656Z,102338.38
2023-10-08T05:31:59.231Z,102344.06
2023-10-08T05:34:28.329Z,102353.25
2023-10-08T05:36:55.290Z,102353.84
2023-10-08T05:39:21.998Z,102356.00
2023-10-08T05:41:49.972Z,102352.91
2023-10-08T05:44:16.647Z,102349.22
2023-10-08T05:46:43.224Z,102352.91
2023-10-08T05:49:10.008Z,102357.00
2023-10-08T05:51:38.526Z,102356.75
2023-10-08T05:54:05.504Z,102360.16
2023-10-08T05:56:32.270Z,102357.00
2023-10-08T05:59:00.239Z,102353.84
2023-10-08T06:01:27.311Z,102362.63
2023-10-08T06:03:54.083Z,102353.31
2023-10-08T06:06:20.751Z,102357.69
2023-10-08T06:08:47.400Z,102354.66
2023-10-08T06:11:13.951Z,102351.88
2023-10-08T06:13:40.555Z,102356.25
2023-10-08T06:16:08.480Z,102360.31
2023-10-08T06:18:35.122Z,102367.88
2023-10-08T06:21:03.544Z,102381.13
2023-10-08T06:23:31.036Z,102388.94
2023-10-08T06:25:57.621Z,102379.94
2023-10-08T06:28:24.549Z,102376.75
2023-10-08T06:30:52.296Z,102359.53
2023-10-08T06:33:21.308Z,102393.03
2023-10-08T06:35:47.999Z,102399.22
2023-10-08T06:38:14.584Z,102408.16
2023-10-08T06:40:41.539Z,102398.75
2023-10-08T06:43:08.568Z,102405.72
2023-10-08T06:45:35.205Z,102410.50
2023-10-08T06:48:01.866Z,102413.16
2023-10-08T06:50:29.885Z,102426.78
2023-10-08T06:52:56.485Z,102406.44
2023-10-08T06:55:23.055Z,102408.06
2023-10-08T06:57:49.635Z,102387.00
2023-10-08T07:00:16.501Z,102388.91
2023-10-08T07:02:43.128Z,102395.81
2023-10-08T07:05:10.087Z,102415.44
2023-10-08T07:07:38.051Z,102436.50
2023-10-08T07:10:05.324Z,102448.94
2023-10-08T07:12:31.930Z,102444.81
2023-10-08T07:14:59.131Z,102451.88
2023-10-08T07:17:25.727Z,102454.81
2023-10-08T07:19:52.534Z,102451.22
2023-10-08T07:22:20.028Z,102461.56
2023-10-08T07:24:48.505Z,102457.44
2023-10-08T07:27:15.192Z,102459.88
2023-10-08T07:29:41.900Z,102458.81
2023-10-08T07:32:08.491Z,102453.09
2023-10-08T07:34:35.062Z,102459.22
2023-10-08T07:37:01.615Z,102453.38
2023-10-08T07:39:28.202Z,102448.41
2023-10-08T07:41:56.420Z,102457.06
2023-10-08T07:44:23.591Z,102455.94
2023-10-08T07:46:50.980Z,102461.94
2023-10-08T07:49:17.989Z,102471.31
2023-10-08T07:51:44.764Z,102469.63
2023-10-08T07:54:11.677Z,102468.81
2023-10-08T07:56:38.442Z,102467.13
2023-10-08T07:59:06.468Z,102475.25
2023-10-08T08:01:33.168Z,102480.63
2023-10-08T08:03:59.879Z,102483.88
2023-10-08T08:06:26.494Z,102488.84
2023-10-08T08:08:53.241Z,102492.13
2023-10-08T08:11:19.819Z,102497.06
2023-10-08T08:13:47.002Z,102512.81
2023-10-08T08:16:15.468Z,102524.00
2023-10-08T08:18:42.152Z,102512.81
2023-10-08T08:21:11.316Z,102515.94
2023-10-08T08:23:37.952Z,102526.59
2023-10-08T08:26:04.541Z,102523.75
2023-10-08T08:28:31.107Z,102524.59
2023-10-08T08:31:03.187Z,102522.31
2023-10-08T08:33:31.640Z,102507.28
2023-10-08T08:35:59.400Z,102494.94
2023-10-08T08:38:26.058Z,102493.97
2023-10-08T08:41:02.172Z,102497.53
2023-10-08T08:43:29.042Z,102498.06
2023-10-08T08:45:55.651Z,102506.28
2023-10-08T08:48:23.102Z,102505.75
2023-10-08T08:50:51.187Z,102510.00
2023-10-08T08:53:17.862Z,102521.34
2023-10-08T08:55:45.137Z,102514.53
2023-10-08T08:58:11.703Z,102507.03
2023-10-08T09:00:39.426Z,102494.97
2023-10-08T09:03:06.092Z,102500.19
2023-10-08T09:05:32.834Z,102541.19
2023-10-08T09:08:02.331Z,102579.22
2023-10-08T09:10:29.037Z,102581.59
2023-10-08T09:12:56.388Z,102582.59
2023-10-08T09:15:23.088Z,102533.81
2023-10-08T09:17:50.005Z,102510.97
2023-10-08T09:20:16.772Z,102522.13
2023-10-08T09:22:43.358Z,102558.59
2023-10-08T09:25:11.308Z,102550.84
2023-10-08T09:27:37.931Z,102530.72
2023-10-08T09:30:05.861Z,102574.38
2023-10-08T09:32:32.491Z,102599.44
2023-10-08T09:34:59.536Z,102572.00
2023-10-08T09:37:26.159Z,102528.91
2023-10-08T09:39:54.630Z,102563.72
2023-10-08T09:42:22.819Z,102616.78
2023-10-08T09:44:49.734Z,102531.16
2023-10-08T09:47:21.765Z,102512.63
2023-10-08T09:49:57.199Z,102582.72
2023-10-08T09:52:28.143Z,102592.19
2023-10-08T09:55:00.847Z,102531.22
2023-10-08T09:57:28.763Z,102528.78
2023-10-08T09:59:55.620Z,102535.09
2023-10-08T10:02:22.374Z,102521.31
2023-10-08T10:04:51.278Z,102564.84
2023-10-08T10:07:18.211Z,102572.78
2023-10-08T10:09:47.087Z,102595.41
2023-10-08T10:12:19.439Z,102572.88
2023-10-08T10:14:48.718Z,102594.81
2023-10-08T10:17:28.044Z,102583.78
2023-10-08T10:20:02.215Z,102561.66
2023-10-08T10:22:29.840Z,102561.22
2023-10-08T10:24:58.230Z,102580.56
2023-10-08T10:27:24.847Z,102559.41
2023-10-08T10:29:52.833Z,102562.19
2023-10-08T10:32:19.449Z,102563.72
2023-10-08T10:34:46.610Z,102572.09
2023-10-08T10:37:15.238Z,102577.84
2023-10-08T10:39:42.999Z,102588.31
2023-10-08T10:42:10.385Z,102582.81
2023-10-08T10:44:37.004Z,102581.22
2023-10-08T10:47:05.251Z,102563.94
2023-10-08T10:49:33.399Z,102578.34
2023-10-08T10:52:00.078Z,102573.94
2023-10-08T10:54:27.156Z,102582.31
2023-10-08T10:56:54.725Z,102570.94
2023-10-08T10:59:21.344Z,102560.19
2023-10-08T11:01:48.379Z,102558.09
2023-10-08T11:04:16.559Z,102558.91
2023-10-08T11:06:44.671Z,102553.50
2023-10-08T11:09:11.868Z,102553.88
2023-10-08T11:11:38.668Z,102549.31
2023-10-08T11:14:05.355Z,102552.38
2023-10-08T11:16:33.347Z,102548.59
2023-10-08T11:19:00.100Z,102544.75
2023-10-08T11:21:28.212Z,102537.25
2023-10-08T11:23:55.260Z,102515.91
2023-10-08T11:26:24.001Z,102501.50
2023-10-08T11:28:50.684Z,102473.72
2023-10-08T11:31:18.838Z,102482.44
2023-10-08T11:33:46.088Z,102476.06
2023-10-08T11:36:18.704Z,102464.81
2023-10-08T11:38:47.475Z,102461.06
2023-10-08T11:41:15.028Z,102463.09
2023-10-08T11:43:41.582Z,102475.44
2023-10-08T11:46:08.180Z,102497.28
2023-10-08T11:48:34.876Z,102506.59
2023-10-08T11:51:01.533Z,102520.16
2023-10-08T11:53:28.185Z,102518.34
2023-10-08T11:55:56.361Z,102523.59
2023-10-08T11:58:23.210Z,102530.75
2023-10-08T12:00:50.037Z,102538.34
2023-10-08T12:03:17.491Z,102533.34
2023-10-08T12:05:44.437Z,102531.78
2023-10-08T12:08:11.150Z,102534.78
2023-10-08T12:10:39.259Z,102539.56
2023-10-08T12:13:07.412Z,102531.75
2023-10-08T12:15:34.061Z,102517.53
2023-10-08T12:18:01.194Z,102523.84
2023-10-08T12:20:27.888Z,102530.16
2023-10-08T12:22:56.692Z,102521.97
2023-10-08T12:25:23.246Z,102524.13
2023-10-08T12:27:49.803Z,102513.38
2023-10-08T12:30:17.778Z,102519.41
2023-10-08T12:32:44.516Z,102533.75
2023-10-08T12:35:11.143Z,102528.06
2023-10-08T12:37:37.695Z,102513.53
2023-10-08T12:40:05.116Z,102501.13
2023-10-08T12:42:31.676Z,102504.88
2023-10-08T12:44:58.551Z,102499.22
2023-10-08T12:47:26.854Z,102502.34
2023-10-08T12:49:53.423Z,102511.53
2023-10-08T12:52:19.993Z,102511.28
2023-10-08T12:54:46.715Z,102506.41
2023-10-08T12:57:13.469Z,102504.97
2023-10-08T12:59:40.116Z,102509.03
2023-10-08T13:02:06.724Z,102503.66
2023-10-08T13:04:34.699Z,102513.16
2023-10-08T13:07:02.002Z,102535.16
2023-10-08T13:09:29.605Z,102531.31
2023-10-08T13:11:56.248Z,102513.22
2023-10-08T13:14:22.918Z,102511.81
2023-10-08T13:16:49.994Z,102506.50
2023-10-08T13:19:16.623Z,102500.25
2023-10-08T13:21:44.544Z,102501.34
2023-10-08T13:24:11.194Z,102497.94
2023-10-08T13:26:38.412Z,102482.28
2023-10-08T13:29:05.647Z,102479.63
2023-10-08T13:31:32.453Z,102478.50
2023-10-08T13:33:59.142Z,102497.75
2023-10-08T13:36:25.901Z,102496.69
2023-10-08T13:38:53.908Z,102497.09
2023-10-08T13:41:20.548Z,102507.72
2023-10-08T13:43:48.714Z,102505.00
2023-10-08T13:46:16.886Z,102487.72
2023-10-08T13:48:44.831Z,102500.25
2023-10-08T13:51:11.485Z,102516.63
2023-10-08T13:53:38.282Z,102510.03
2023-10-08T13:56:06.363Z,102522.69
2023-10-08T13:58:33.618Z,102522.94
2023-10-08T14:01:00.154Z,102513.16
2023-10-08T14:03:27.537Z,102519.28
2023-10-08T14:05:54.299Z,102516.38
2023-10-08T14:08:21.225Z,102503.19
2023-10-08T14:10:47.783Z,102508.75
2023-10-08T14:13:16.448Z,102495.91
2023-10-08T14:15:43.080Z,102494.72
2023-10-08T14:18:09.939Z,102506.94
2023-10-08T14:20:36.669Z,102504.72
2023-10-08T14:23:03.359Z,102503.97
2023-10-08T14:25:30.003Z,102503.13
2023-10-08T14:27:56.569Z,102479.66
2023-10-08T14:30:24.471Z,102480.47
2023-10-08T14:32:51.410Z,102476.41
2023-10-08T14:35:18.133Z,102484.72
2023-10-08T14:37:45.308Z,102480.00
2023-10-08T14:40:13.351Z,102483.38
2023-10-08T14:42:39.926Z,102477.09
2023-10-08T14:45:07.345Z,102471.13
2023-10-08T14:47:35.424Z,102463.31
2023-10-08T14:50:02.090Z,102465.16
2023-10-08T14:52:28.687Z,102458.25
2023-10-08T14:54:55.240Z,102451.13
2023-10-08T14:57:21.807Z,102436.88
2023-10-08T14:59:49.020Z,102441.78
2023-10-08T15:02:15.616Z,102424.03
2023-10-08T15:04:43.526Z,102420.63
2023-10-08T15:07:10.168Z,102412.31
2023-10-08T15:09:38.908Z,102411.16
2023-10-08T15:12:06.504Z,102416.56
2023-10-08T15:14:33.152Z,102414.69
2023-10-08T15:16:59.753Z,102415.16
2023-10-08T15:19:27.771Z,102403.00
2023-10-08T15:21:58.289Z,102393.34
2023-10-08T15:24:25.535Z,102390.66
2023-10-08T15:26:53.232Z,102397.47
2023-10-08T15:29:20.244Z,102404.88
2023-10-08T15:31:46.849Z,102394.06
2023-10-08T15:34:24.801Z,102392.53
2023-10-08T15:37:00.653Z,102395.56
2023-10-08T15:39:27.230Z,102392.50
2023-10-08T15:41:53.845Z,102389.63
2023-10-08T15:44:20.599Z,102387.53
2023-10-08T15:46:47.238Z,102398.72
2023-10-08T15:49:14.042Z,102389.41
2023-10-08T15:51:40.869Z,102370.69
2023-10-08T15:54:08.947Z,102352.56
2023-10-08T15:56:35.615Z,102356.03
2023-10-08T15:59:02.271Z,102366.09
2023-10-08T16:01:29.040Z,102360.41
2023-10-08T16:03:56.256Z,102358.03
2023-10-08T16:06:23.188Z,102357.31
2023-10-08T16:08:49.813Z,102354.22
2023-10-08T16:11:18.456Z,102347.41
2023-10-08T16:13:45.041Z,102356.13
2023-10-08T16:16:11.680Z,102332.31
2023-10-08T16:18:38.477Z,102325.50
2023-10-08T16:21:05.772Z,102358.28
2023-10-08T16:23:32.507Z,102338.47
2023-10-08T16:25:59.137Z,102347.91
2023-10-08T16:28:27.056Z,102349.78
2023-10-08T16:30:53.634Z,102347.97
2023-10-08T16:33:20.899Z,102373.44
2023-10-08T16:35:47.569Z,102352.06
2023-10-08T16:38:14.197Z,102346.47
2023-10-08T16:40:40.802Z,102350.94
2023-10-08T16:43:07.384Z,102354.81
2023-10-08T16:45:35.382Z,102352.78
2023-10-08T16:48:02.097Z,102347.34
2023-10-08T16:50:28.815Z,102334.16
2023-10-08T16:52:55.474Z,102330.03
2023-10-08T16:55:22.064Z,102319.47
2023-10-08T16:57:48.660Z,102318.31
2023-10-08T17:00:15.559Z,102315.13
2023-10-08T17:02:43.736Z,102307.97
2023-10-08T17:05:10.894Z,102313.81
2023-10-08T17:07:37.515Z,102322.47
2023-10-08T17:10:04.491Z,102332.50
2023-10-08T17:12:31.088Z,102334.00
2023-10-08T17:14:57.653Z,102348.50
2023-10-08T17:17:24.342Z,102351.06
2023-10-08T17:19:52.280Z,102348.19
2023-10-08T17:22:18.945Z,102350.72
2023-10-08T17:24:45.504Z,102349.63
2023-10-08T17:27:14.643Z,102336.06
2023-10-08T17:29:41.851Z,102339.75
2023-10-08T17:32:08.530Z,102332.13
2023-10-08T17:34:35.222Z,102319.97
2023-10-08T17:37:03.203Z,102312.00
2023-10-08T17:39:29.764Z,102313.88
2023-10-08T17:41:56.341Z,102316.00
2023-10-08T17:44:22.994Z,102317.56
2023-10-08T17:46:49.633Z,102330.47
2023-10-08T17:49:16.339Z,102316.94
2023-10-08T17:51:42.979Z,102311.81
2023-10-08T17:54:10.915Z,102297.41
2023-10-08T17:56:37.657Z,102292.47
2023-10-08T17:59:04.406Z,102288.22
2023-10-08T18:01:31.063Z,102290.13
2023-10-08T18:03:57.832Z,102291.63
2023-10-08T18:06:24.554Z,102281.34
2023-10-08T18:08:51.282Z,102274.28
2023-10-08T18:11:19.986Z,102271.28
2023-10-08T18:13:46.884Z,102268.75
2023-10-08T18:16:14.868Z,102256.03
2023-10-08T18:18:41.941Z,102279.00
2023-10-08T18:21:09.998Z,102263.41
2023-10-08T18:23:37.329Z,102264.69
2023-10-08T18:26:03.871Z,102255.75
2023-10-08T18:28:32.120Z,102247.84
2023-10-08T18:30:58.777Z,102248.03
2023-10-08T18:33:25.430Z,102239.91
2023-10-08T18:35:52.060Z,102242.91
2023-10-08T18:38:18.724Z,102236.41
2023-10-08T18:40:45.276Z,102232.16
2023-10-08T18:43:11.883Z,102233.16
2023-10-08T18:45:41.766Z,102229.31
2023-10-08T18:48:08.467Z,102239.63
2023-10-08T18:50:35.204Z,102227.34
2023-10-08T18:53:01.791Z,102226.06
2023-10-08T18:55:39.092Z,102226.47
2023-10-08T18:58:09.836Z,102221.13
2023-10-08T19:00:36.386Z,102218.13
2023-10-08T19:03:04.791Z,102206.53
2023-10-08T19:05:31.482Z,102203.41
2023-10-08T19:07:58.025Z,102185.31
2023-10-08T19:10:25.795Z,102195.66
2023-10-08T19:12:52.469Z,102195.34
2023-10-08T19:15:19.149Z,102194.66
2023-10-08T19:17:46.169Z,102180.34
2023-10-08T19:20:14.494Z,102170.31
2023-10-08T19:22:41.088Z,102151.50
2023-10-08T19:25:08.552Z,102141.03
2023-10-08T19:27:35.156Z,102127.19
2023-10-08T19:30:02.123Z,102144.16
2023-10-08T19:32:28.743Z,102137.19
2023-10-08T19:34:55.368Z,102131.97
2023-10-08T19:37:23.340Z,102116.84
2023-10-08T19:39:49.903Z,102110.31
2023-10-08T19:42:16.573Z,102105.94
2023-10-08T19:44:43.254Z,102105.94
2023-10-08T19:47:09.833Z,102102.13
2023-10-08T19:49:36.507Z,102100.44
2023-10-08T19:52:03.092Z,102097.47
2023-10-08T19:54:31.044Z,102096.47
2023-10-08T19:56:57.718Z,102095.75
2023-10-08T19:59:24.265Z,102102.28
2023-10-08T20:01:50.904Z,102095.47
2023-10-08T20:04:17.698Z,102096.47
2023-10-08T20:06:44.451Z,102095.19
2023-10-08T20:09:11.307Z,102088.81
2023-10-08T20:11:39.381Z,102082.03
2023-10-08T20:14:06.003Z,102075.94
2023-10-08T20:16:32.595Z,102066.13
2023-10-08T20:18:59.221Z,102047.31
2023-10-08T20:21:25.816Z,102047.97
2023-10-08T20:23:52.594Z,102062.72
2023-10-08T20:26:19.188Z,102070.72
2023-10-08T20:28:47.936Z,102075.66
2023-10-08T20:31:15.426Z,102062.19
2023-10-08T20:33:42.999Z,102060.19
2023-10-08T20:36:09.662Z,102051.00
2023-10-08T20:38:36.288Z,102057.72
2023-10-08T20:41:02.970Z,102049.22
2023-10-08T20:43:29.569Z,102055.28
2023-10-08T20:45:57.703Z,102058.81
2023-10-08T20:48:24.487Z,102054.09
2023-10-08T20:50:51.106Z,102048.41
2023-10-08T20:53:17.712Z,102030.41
2023-10-08T20:55:44.282Z,102036.44
2023-10-08T20:58:11.195Z,102055.44
2023-10-08T21:00:38.544Z,102059.13
2023-10-08T21:03:07.646Z,102056.72
2023-10-08T21:05:35.738Z,102047.47
2023-10-08T21:08:02.360Z,102058.84
2023-10-08T21:10:29.014Z,102052.59
2023-10-08T21:12:56.598Z,102053.03
2023-10-08T21:15:25.460Z,102056.09
2023-10-08T21:17:54.789Z,102049.44
2023-10-08T21:20:24.141Z,102045.25
2023-10-08T21:22:53.898Z,102055.09
2023-10-08T21:25:21.503Z,102049.16
2023-10-08T21:27:51.069Z,102043.50
2023-10-08T21:30:17.961Z,102014.50
2023-10-08T21:32:44.640Z,102012.06
2023-10-08T21:35:12.410Z,102027.72
2023-10-08T21:37:41.231Z,102019.53
2023-10-08T21:40:09.061Z,102008.22
2023-10-08T21:42:35.805Z,102012.41
2023-10-08T21:45:02.464Z,102009.22
2023-10-08T21:47:29.186Z,102017.06
2023-10-08T21:49:55.974Z,102022.25
2023-10-08T21:52:22.604Z,102014.56
2023-10-08T21:54:52.398Z,102019.25
2023-10-08T21:57:19.226Z,102002.97
2023-10-08T21:59:45.886Z,101996.91
2023-10-08T22:02:12.475Z,101994.06
2023-10-08T22:04:39.240Z,102009.34
2023-10-08T22:07:05.804Z,102001.69
2023-10-08T22:09:33.300Z,101993.78
2023-10-08T22:12:02.549Z,101989.34
2023-10-08T22:14:29.227Z,101975.63
2023-10-08T22:16:55.785Z,101961.19
2023-10-08T22:19:22.365Z,101946.03
2023-10-08T22:21:48.945Z,101940.31
2023-10-08T22:24:15.659Z,101942.72
2023-10-08T22:26:42.406Z,101951.22
2023-10-08T22:29:10.747Z,101944.94
2023-10-08T22:31:38.242Z,101942.78
2023-10-08T22:34:04.820Z,101932.59
2023-10-08T22:36:31.442Z,101949.31
2023-10-08T22:38:58.083Z,101930.03
2023-10-08T22:41:24.732Z,101920.38
2023-10-08T22:43:51.340Z,101894.34
2023-10-08T22:46:19.351Z,101904.25
2023-10-08T22:48:46.151Z,101905.53
2023-10-08T22:51:14.099Z,101899.41
2023-10-08T22:53:41.516Z,101888.88
2023-10-08T22:56:08.316Z,101877.81
2023-10-08T22:58:35.618Z,101867.06
2023-10-08T23:01:09.888Z,101858.81
2023-10-08T23:03:38.323Z,101837.00
2023-10-08T23:06:08.188Z,101838.97
2023-10-08T23:08:34.804Z,101839.28
2023-10-08T23:11:01.482Z,101846.97
2023-10-08T23:13:28.141Z,101854.44
2023-10-08T23:15:54.778Z,101847.09
2023-10-08T23:18:21.463Z,101835.09
2023-10-08T23:20:49.473Z,101852.50
2023-10-08T23:23:16.054Z,101852.94
2023-10-08T23:25:42.641Z,101851.97
2023-10-08T23:28:09.262Z,101834.53
2023-10-08T23:30:35.913Z,101819.25
2023-10-08T23:33:02.782Z,101809.25
2023-10-08T23:35:29.441Z,101817.56
2023-10-08T23:37:57.333Z,101826.91
2023-10-08T23:40:23.900Z,101837.91
2023-10-08T23:42:50.485Z,101848.94
2023-10-08T23:45:17.278Z,101843.91
2023-10-08T23:47:44.313Z,101835.22
2023-10-08T23:50:10.967Z,101854.19
2023-10-08T23:52:37.510Z,101831.13
2023-10-08T23:55:06.498Z,101819.25
2023-10-08T23:57:32.990Z,101824.13
2023-10-08T23:59:59.597Z,101820.13
